sensor_id;sensor_type;location;lat;lon;timestamp;pressure;altitude;pressure_sealevel;temperature;humidity
79142;BME280;68550;-26.480;29.234;2023-05-27T00:01:25;84580.49;;;22.38;26.84
79142;BME280;68550;-26.480;29.234;2023-05-27T00:03:51;84579.89;;;22.14;26.86
79142;BME280;68550;-26.480;29.234;2023-05-27T00:06:18;84575.62;;;22.32;26.95
79142;BME280;68550;-26.480;29.234;2023-05-27T00:08:42;84571.65;;;22.62;26.92
79142;BME280;68550;-26.480;29.234;2023-05-27T00:11:07;84568.69;;;22.42;26.92
79142;BME280;68550;-26.480;29.234;2023-05-27T00:13:33;84567.99;;;22.13;26.97
79142;BME280;68550;-26.480;29.234;2023-05-27T00:15:58;84571.16;;;22.54;27.09
79142;BME280;68550;-26.480;29.234;2023-05-27T00:18:24;84570.82;;;22.10;27.10
79142;BME280;68550;-26.480;29.234;2023-05-27T00:20:49;84567.98;;;22.30;27.16
79142;BME280;68550;-26.480;29.234;2023-05-27T00:23:15;84565.81;;;22.21;27.29
79142;BME280;68550;-26.480;29.234;2023-05-27T00:25:40;84565.06;;;22.24;27.35
79142;BME280;68550;-26.480;29.234;2023-05-27T00:28:06;84565.15;;;22.26;27.41
79142;BME280;68550;-26.480;29.234;2023-05-27T00:30:31;84562.86;;;22.26;27.41
79142;BME280;68550;-26.480;29.234;2023-05-27T00:32:58;84565.77;;;22.18;27.60
79142;BME280;68550;-26.480;29.234;2023-05-27T00:35:22;84567.25;;;22.26;27.59
79142;BME280;68550;-26.480;29.234;2023-05-27T00:37:48;84568.27;;;22.24;27.74
79142;BME280;68550;-26.480;29.234;2023-05-27T00:40:17;84569.42;;;22.32;27.65
79142;BME280;68550;-26.480;29.234;2023-05-27T00:42:38;84566.00;;;22.27;27.76
79142;BME280;68550;-26.480;29.234;2023-05-27T00:45:04;84569.64;;;22.30;27.77
79142;BME280;68550;-26.480;29.234;2023-05-27T00:47:34;84568.21;;;22.33;27.78
79142;BME280;68550;-26.480;29.234;2023-05-27T00:49:55;84568.81;;;22.33;27.98
79142;BME280;68550;-26.480;29.234;2023-05-27T00:52:20;84568.39;;;22.51;27.95
79142;BME280;68550;-26.480;29.234;2023-05-27T00:54:46;84566.11;;;22.26;27.92
79142;BME280;68550;-26.480;29.234;2023-05-27T00:57:11;84564.43;;;22.22;28.04
79142;BME280;68550;-26.480;29.234;2023-05-27T00:59:37;84565.06;;;22.17;28.09
79142;BME280;68550;-26.480;29.234;2023-05-27T01:02:02;84566.91;;;22.26;28.13
79142;BME280;68550;-26.480;29.234;2023-05-27T01:04:28;84568.73;;;22.23;28.22
79142;BME280;68550;-26.480;29.234;2023-05-27T01:07:01;84569.66;;;22.50;27.99
79142;BME280;68550;-26.480;29.234;2023-05-27T01:09:24;84569.73;;;22.57;28.05
79142;BME280;68550;-26.480;29.234;2023-05-27T01:11:51;84568.55;;;22.22;28.12
79142;BME280;68550;-26.480;29.234;2023-05-27T01:14:13;84565.81;;;22.44;28.16
79142;BME280;68550;-26.480;29.234;2023-05-27T01:16:36;84562.38;;;22.20;28.13
79142;BME280;68550;-26.480;29.234;2023-05-27T01:19:01;84564.85;;;22.18;28.20
79142;BME280;68550;-26.480;29.234;2023-05-27T01:21:30;84563.05;;;22.18;28.23
79142;BME280;68550;-26.480;29.234;2023-05-27T01:23:54;84557.36;;;22.30;28.35
79142;BME280;68550;-26.480;29.234;2023-05-27T01:26:17;84557.31;;;22.07;28.35
79142;BME280;68550;-26.480;29.234;2023-05-27T01:28:43;84558.27;;;22.43;28.29
79142;BME280;68550;-26.480;29.234;2023-05-27T01:31:13;84559.24;;;22.43;28.33
79142;BME280;68550;-26.480;29.234;2023-05-27T01:33:40;84560.71;;;22.25;28.33
79142;BME280;68550;-26.480;29.234;2023-05-27T01:36:04;84564.97;;;22.13;28.46
79142;BME280;68550;-26.480;29.234;2023-05-27T01:38:27;84564.77;;;22.43;28.43
79142;BME280;68550;-26.480;29.234;2023-05-27T01:40:50;84569.48;;;22.21;28.47
79142;BME280;68550;-26.480;29.234;2023-05-27T01:43:15;84571.96;;;22.15;28.53
79142;BME280;68550;-26.480;29.234;2023-05-27T01:45:41;84573.44;;;22.46;28.51
79142;BME280;68550;-26.480;29.234;2023-05-27T01:48:07;84569.27;;;22.25;28.51
79142;BME280;68550;-26.480;29.234;2023-05-27T01:50:32;84566.75;;;22.18;28.58
79142;BME280;68550;-26.480;29.234;2023-05-27T01:52:57;84567.57;;;22.40;28.66
79142;BME280;68550;-26.480;29.234;2023-05-27T01:55:23;84562.94;;;22.17;28.72
79142;BME280;68550;-26.480;29.234;2023-05-27T01:57:48;84563.83;;;21.86;28.83
79142;BME280;68550;-26.480;29.234;2023-05-27T02:00:18;84560.23;;;22.41;28.81
79142;BME280;68550;-26.480;29.234;2023-05-27T02:02:39;84558.90;;;22.17;28.98
79142;BME280;68550;-26.480;29.234;2023-05-27T02:05:05;84556.17;;;22.16;28.87
79142;BME280;68550;-26.480;29.234;2023-05-27T02:07:30;84556.32;;;22.09;29.02
79142;BME280;68550;-26.480;29.234;2023-05-27T02:09:56;84560.04;;;22.15;29.01
79142;BME280;68550;-26.480;29.234;2023-05-27T02:12:21;84560.87;;;22.41;28.94
79142;BME280;68550;-26.480;29.234;2023-05-27T02:14:49;84559.52;;;22.46;28.96
79142;BME280;68550;-26.480;29.234;2023-05-27T02:17:12;84561.44;;;22.37;29.10
79142;BME280;68550;-26.480;29.234;2023-05-27T02:19:38;84560.89;;;22.09;29.26
79142;BME280;68550;-26.480;29.234;2023-05-27T02:22:03;84558.12;;;22.04;29.56
79142;BME280;68550;-26.480;29.234;2023-05-27T02:24:29;84559.38;;;22.14;30.28
79142;BME280;68550;-26.480;29.234;2023-05-27T02:26:54;84559.75;;;21.89;30.01
79142;BME280;68550;-26.480;29.234;2023-05-27T02:29:20;84561.53;;;22.06;30.42
79142;BME280;68550;-26.480;29.234;2023-05-27T02:31:45;84561.81;;;22.03;30.06
79142;BME280;68550;-26.480;29.234;2023-05-27T02:34:10;84567.58;;;22.00;30.89
79142;BME280;68550;-26.480;29.234;2023-05-27T02:36:35;84567.70;;;21.75;30.75
79142;BME280;68550;-26.480;29.234;2023-05-27T02:39:01;84569.34;;;22.09;30.58
79142;BME280;68550;-26.480;29.234;2023-05-27T02:41:26;84567.65;;;22.12;30.52
79142;BME280;68550;-26.480;29.234;2023-05-27T02:43:56;84569.18;;;22.05;30.71
79142;BME280;68550;-26.480;29.234;2023-05-27T02:46:18;84570.86;;;22.12;30.46
79142;BME280;68550;-26.480;29.234;2023-05-27T02:48:43;84572.36;;;22.30;29.98
79142;BME280;68550;-26.480;29.234;2023-05-27T02:51:08;84572.38;;;22.07;30.01
79142;BME280;68550;-26.480;29.234;2023-05-27T02:53:34;84577.10;;;22.17;30.09
79142;BME280;68550;-26.480;29.234;2023-05-27T02:56:00;84576.46;;;22.20;30.21
79142;BME280;68550;-26.480;29.234;2023-05-27T02:58:25;84575.48;;;22.01;30.05
79142;BME280;68550;-26.480;29.234;2023-05-27T03:00:50;84574.93;;;21.84;30.93
79142;BME280;68550;-26.480;29.234;2023-05-27T03:03:16;84577.77;;;22.25;30.40
79142;BME280;68550;-26.480;29.234;2023-05-27T03:05:41;84579.85;;;22.25;30.97
79142;BME280;68550;-26.480;29.234;2023-05-27T03:08:07;84583.12;;;21.82;31.04
79142;BME280;68550;-26.480;29.234;2023-05-27T03:10:32;84590.74;;;21.70;31.37
79142;BME280;68550;-26.480;29.234;2023-05-27T03:12:57;84591.28;;;22.01;31.53
79142;BME280;68550;-26.480;29.234;2023-05-27T03:15:23;84596.90;;;21.59;31.53
79142;BME280;68550;-26.480;29.234;2023-05-27T03:17:49;84595.80;;;21.62;32.59
79142;BME280;68550;-26.480;29.234;2023-05-27T03:20:16;84593.43;;;21.71;32.13
79142;BME280;68550;-26.480;29.234;2023-05-27T03:22:39;84597.09;;;21.79;32.40
79142;BME280;68550;-26.480;29.234;2023-05-27T03:25:06;84596.36;;;21.07;33.48
79142;BME280;68550;-26.480;29.234;2023-05-27T03:27:30;84602.17;;;21.63;32.76
79142;BME280;68550;-26.480;29.234;2023-05-27T03:29:56;84606.23;;;21.25;33.13
79142;BME280;68550;-26.480;29.234;2023-05-27T03:32:22;84609.29;;;22.01;31.73
79142;BME280;68550;-26.480;29.234;2023-05-27T03:34:47;84611.83;;;21.66;32.01
79142;BME280;68550;-26.480;29.234;2023-05-27T03:37:12;84616.36;;;22.03;31.79
79142;BME280;68550;-26.480;29.234;2023-05-27T03:39:38;84614.35;;;21.82;32.35
79142;BME280;68550;-26.480;29.234;2023-05-27T03:42:04;84618.52;;;21.86;31.57
79142;BME280;68550;-26.480;29.234;2023-05-27T03:44:30;84618.05;;;21.90;31.23
79142;BME280;68550;-26.480;29.234;2023-05-27T03:46:55;84620.61;;;22.18;31.44
79142;BME280;68550;-26.480;29.234;2023-05-27T03:49:20;84620.60;;;22.09;31.79
79142;BME280;68550;-26.480;29.234;2023-05-27T03:51:46;84623.98;;;21.57;32.39
79142;BME280;68550;-26.480;29.234;2023-05-27T03:54:11;84627.46;;;21.83;31.67
79142;BME280;68550;-26.480;29.234;2023-05-27T03:56:40;84628.91;;;21.79;31.73
79142;BME280;68550;-26.480;29.234;2023-05-27T03:59:03;84632.00;;;21.63;33.11
79142;BME280;68550;-26.480;29.234;2023-05-27T04:01:28;84638.33;;;21.83;32.80
79142;BME280;68550;-26.480;29.234;2023-05-27T04:03:54;84645.00;;;21.83;32.05
79142;BME280;68550;-26.480;29.234;2023-05-27T04:06:19;84653.78;;;22.13;31.84
79142;BME280;68550;-26.480;29.234;2023-05-27T04:08:45;84661.33;;;21.83;31.93
79142;BME280;68550;-26.480;29.234;2023-05-27T04:11:10;84664.89;;;22.03;32.06
79142;BME280;68550;-26.480;29.234;2023-05-27T04:13:35;84667.54;;;21.55;32.92
79142;BME280;68550;-26.480;29.234;2023-05-27T04:16:01;84671.60;;;21.68;33.04
79142;BME280;68550;-26.480;29.234;2023-05-27T04:18:26;84669.87;;;21.48;33.47
79142;BME280;68550;-26.480;29.234;2023-05-27T04:20:51;84667.12;;;21.80;32.49
79142;BME280;68550;-26.480;29.234;2023-05-27T04:23:17;84666.88;;;21.83;32.89
79142;BME280;68550;-26.480;29.234;2023-05-27T04:25:43;84670.68;;;21.29;33.44
79142;BME280;68550;-26.480;29.234;2023-05-27T04:28:09;84672.27;;;21.08;33.68
79142;BME280;68550;-26.480;29.234;2023-05-27T04:30:34;84675.83;;;21.23;33.52
79142;BME280;68550;-26.480;29.234;2023-05-27T04:33:01;84681.16;;;21.29;33.93
79142;BME280;68550;-26.480;29.234;2023-05-27T04:35:24;84685.42;;;21.36;33.80
79142;BME280;68550;-26.480;29.234;2023-05-27T04:37:50;84683.54;;;21.20;34.29
79142;BME280;68550;-26.480;29.234;2023-05-27T04:40:15;84684.48;;;21.22;33.93
79142;BME280;68550;-26.480;29.234;2023-05-27T04:42:41;84687.77;;;21.55;33.96
79142;BME280;68550;-26.480;29.234;2023-05-27T04:45:08;84691.78;;;21.49;33.22
79142;BME280;68550;-26.480;29.234;2023-05-27T04:47:32;84695.38;;;21.51;33.91
79142;BME280;68550;-26.480;29.234;2023-05-27T04:49:58;84695.50;;;21.04;34.22
79142;BME280;68550;-26.480;29.234;2023-05-27T04:52:24;84699.33;;;21.75;33.19
79142;BME280;68550;-26.480;29.234;2023-05-27T04:54:49;84705.21;;;21.43;33.79
79142;BME280;68550;-26.480;29.234;2023-05-27T04:57:15;84708.35;;;21.58;33.87
79142;BME280;68550;-26.480;29.234;2023-05-27T04:59:40;84714.07;;;20.90;34.88
79142;BME280;68550;-26.480;29.234;2023-05-27T05:12:14;84727.47;;;20.92;35.19
79142;BME280;68550;-26.480;29.234;2023-05-27T05:14:40;84729.54;;;20.75;35.27
79142;BME280;68550;-26.480;29.234;2023-05-27T05:17:04;84730.30;;;21.70;34.48
79142;BME280;68550;-26.480;29.234;2023-05-27T05:19:31;84726.50;;;21.47;34.23
79142;BME280;68550;-26.480;29.234;2023-05-27T05:21:55;84726.38;;;21.28;34.61
79142;BME280;68550;-26.480;29.234;2023-05-27T05:51:01;84724.30;;;21.21;35.21
79142;BME280;68550;-26.480;29.234;2023-05-27T05:53:26;84735.45;;;21.32;34.39
79142;BME280;68550;-26.480;29.234;2023-05-27T05:55:52;84742.17;;;20.97;35.46
79142;BME280;68550;-26.480;29.234;2023-05-27T05:58:17;84744.78;;;20.74;35.55
79142;BME280;68550;-26.480;29.234;2023-05-27T06:03:07;84747.77;;;21.10;35.46
79142;BME280;68550;-26.480;29.234;2023-05-27T06:12:49;84755.38;;;21.03;35.81
79142;BME280;68550;-26.480;29.234;2023-05-27T06:15:18;84757.21;;;20.90;36.14
79142;BME280;68550;-26.480;29.234;2023-05-27T06:17:44;84754.77;;;20.42;37.04
79142;BME280;68550;-26.480;29.234;2023-05-27T06:20:06;84759.07;;;20.35;36.87
79142;BME280;68550;-26.480;29.234;2023-05-27T06:22:31;84760.02;;;20.71;36.24
79142;BME280;68550;-26.480;29.234;2023-05-27T06:25:08;84757.90;;;21.10;35.89
79142;BME280;68550;-26.480;29.234;2023-05-27T06:37:15;84759.70;;;21.52;35.65
79142;BME280;68550;-26.480;29.234;2023-05-27T06:51:36;84764.42;;;21.59;35.84
79142;BME280;68550;-26.480;29.234;2023-05-27T06:54:02;84766.93;;;21.48;35.86
79142;BME280;68550;-26.480;29.234;2023-05-27T06:56:29;84761.86;;;22.13;35.35
79142;BME280;68550;-26.480;29.234;2023-05-27T06:58:53;84761.33;;;21.53;35.93
79142;BME280;68550;-26.480;29.234;2023-05-27T07:06:40;84767.02;;;21.26;36.00
79142;BME280;68550;-26.480;29.234;2023-05-27T07:09:09;84767.71;;;21.63;35.48
79142;BME280;68550;-26.480;29.234;2023-05-27T07:11:31;84765.32;;;22.17;34.53
79142;BME280;68550;-26.480;29.234;2023-05-27T07:13:56;84771.47;;;21.92;35.47
79142;BME280;68550;-26.480;29.234;2023-05-27T07:16:22;84774.77;;;22.14;35.10
79142;BME280;68550;-26.480;29.234;2023-05-27T07:18:47;84774.47;;;21.79;35.52
79142;BME280;68550;-26.480;29.234;2023-05-27T07:21:13;84776.30;;;22.06;35.10
79142;BME280;68550;-26.480;29.234;2023-05-27T07:23:38;84781.94;;;21.92;35.41
79142;BME280;68550;-26.480;29.234;2023-05-27T07:26:03;84782.29;;;22.24;35.22
79142;BME280;68550;-26.480;29.234;2023-05-27T07:28:29;84778.97;;;22.05;35.14
79142;BME280;68550;-26.480;29.234;2023-05-27T07:30:54;84780.55;;;21.74;35.71
79142;BME280;68550;-26.480;29.234;2023-05-27T07:33:22;84781.58;;;21.66;35.98
79142;BME280;68550;-26.480;29.234;2023-05-27T07:35:45;84779.76;;;22.11;35.59
79142;BME280;68550;-26.480;29.234;2023-05-27T07:38:11;84778.23;;;22.31;35.14
79142;BME280;68550;-26.480;29.234;2023-05-27T07:40:36;84776.76;;;22.31;34.77
79142;BME280;68550;-26.480;29.234;2023-05-27T07:43:01;84777.82;;;22.22;34.98
79142;BME280;68550;-26.480;29.234;2023-05-27T07:45:28;84777.28;;;21.94;35.42
79142;BME280;68550;-26.480;29.234;2023-05-27T07:47:52;84781.05;;;22.12;35.22
79142;BME280;68550;-26.480;29.234;2023-05-27T07:50:18;84775.74;;;21.90;35.64
79142;BME280;68550;-26.480;29.234;2023-05-27T07:52:44;84777.01;;;22.14;35.23
79142;BME280;68550;-26.480;29.234;2023-05-27T07:55:09;84776.74;;;22.43;35.07
79142;BME280;68550;-26.480;29.234;2023-05-27T07:57:34;84774.59;;;22.34;34.75
79142;BME280;68550;-26.480;29.234;2023-05-27T08:00:00;84776.17;;;22.78;34.49
79142;BME280;68550;-26.480;29.234;2023-05-27T08:02:26;84776.32;;;22.51;34.62
79142;BME280;68550;-26.480;29.234;2023-05-27T08:04:51;84778.58;;;22.19;35.21
79142;BME280;68550;-26.480;29.234;2023-05-27T08:07:16;84779.56;;;22.18;34.86
79142;BME280;68550;-26.480;29.234;2023-05-27T08:09:42;84776.61;;;21.98;35.58
79142;BME280;68550;-26.480;29.234;2023-05-27T08:12:07;84775.07;;;22.60;34.94
79142;BME280;68550;-26.480;29.234;2023-05-27T08:14:32;84772.29;;;22.29;35.23
79142;BME280;68550;-26.480;29.234;2023-05-27T08:17:00;84774.93;;;22.45;34.96
79142;BME280;68550;-26.480;29.234;2023-05-27T08:19:24;84777.22;;;22.83;34.86
79142;BME280;68550;-26.480;29.234;2023-05-27T08:21:48;84774.48;;;22.64;34.72
79142;BME280;68550;-26.480;29.234;2023-05-27T08:24:14;84775.79;;;22.26;35.08
79142;BME280;68550;-26.480;29.234;2023-05-27T08:26:39;84776.24;;;22.42;34.87
79142;BME280;68550;-26.480;29.234;2023-05-27T08:29:04;84774.25;;;22.08;35.34
79142;BME280;68550;-26.480;29.234;2023-05-27T08:31:30;84769.39;;;22.55;34.56
79142;BME280;68550;-26.480;29.234;2023-05-27T08:33:55;84765.86;;;22.58;34.56
79142;BME280;68550;-26.480;29.234;2023-05-27T08:36:21;84770.73;;;22.74;34.76
79142;BME280;68550;-26.480;29.234;2023-05-27T08:38:46;84767.25;;;22.26;35.08
79142;BME280;68550;-26.480;29.234;2023-05-27T08:41:12;84762.26;;;22.71;34.75
79142;BME280;68550;-26.480;29.234;2023-05-27T08:43:38;84759.30;;;22.73;34.72
79142;BME280;68550;-26.480;29.234;2023-05-27T08:46:02;84760.25;;;22.57;34.59
79142;BME280;68550;-26.480;29.234;2023-05-27T08:48:31;84759.40;;;22.59;34.58
79142;BME280;68550;-26.480;29.234;2023-05-27T08:50:53;84758.25;;;22.34;35.00
79142;BME280;68550;-26.480;29.234;2023-05-27T08:53:18;84757.82;;;22.51;34.79
79142;BME280;68550;-26.480;29.234;2023-05-27T08:55:49;84755.70;;;22.62;34.63
79142;BME280;68550;-26.480;29.234;2023-05-27T08:58:10;84756.30;;;22.68;34.53
79142;BME280;68550;-26.480;29.234;2023-05-27T09:00:35;84748.89;;;22.38;34.61
79142;BME280;68550;-26.480;29.234;2023-05-27T09:03:00;84746.65;;;22.43;34.61
79142;BME280;68550;-26.480;29.234;2023-05-27T09:05:28;84742.49;;;22.82;34.38
79142;BME280;68550;-26.480;29.234;2023-05-27T09:07:52;84739.96;;;22.80;34.38
79142;BME280;68550;-26.480;29.234;2023-05-27T09:10:16;84736.52;;;22.73;34.51
79142;BME280;68550;-26.480;29.234;2023-05-27T09:12:44;84740.37;;;22.74;34.57
79142;BME280;68550;-26.480;29.234;2023-05-27T09:15:07;84735.70;;;22.75;34.57
79142;BME280;68550;-26.480;29.234;2023-05-27T09:17:32;84733.86;;;23.01;34.49
79142;BME280;68550;-26.480;29.234;2023-05-27T09:19:57;84724.05;;;22.83;34.52
79142;BME280;68550;-26.480;29.234;2023-05-27T09:22:24;84721.05;;;23.09;34.49
79142;BME280;68550;-26.480;29.234;2023-05-27T09:24:48;84718.10;;;22.92;34.45
79142;BME280;68550;-26.480;29.234;2023-05-27T09:27:13;84721.17;;;23.22;34.33
79142;BME280;68550;-26.480;29.234;2023-05-27T09:29:39;84724.00;;;23.04;34.27
79142;BME280;68550;-26.480;29.234;2023-05-27T09:32:06;84725.95;;;23.03;34.26
79142;BME280;68550;-26.480;29.234;2023-05-27T09:34:30;84725.36;;;22.83;34.20
79142;BME280;68550;-26.480;29.234;2023-05-27T09:36:56;84728.59;;;23.06;34.20
79142;BME280;68550;-26.480;29.234;2023-05-27T09:39:23;84731.66;;;23.04;34.24
79142;BME280;68550;-26.480;29.234;2023-05-27T09:41:52;84725.74;;;23.04;34.23
79142;BME280;68550;-26.480;29.234;2023-05-27T09:44:14;84726.85;;;23.05;34.20
79142;BME280;68550;-26.480;29.234;2023-05-27T09:46:39;84729.64;;;22.78;34.25
79142;BME280;68550;-26.480;29.234;2023-05-27T09:49:03;84729.95;;;23.01;34.28
79142;BME280;68550;-26.480;29.234;2023-05-27T09:51:28;84725.69;;;22.92;34.37
79142;BME280;68550;-26.480;29.234;2023-05-27T09:53:56;84721.23;;;22.89;34.39
79142;BME280;68550;-26.480;29.234;2023-05-27T09:56:19;84719.54;;;22.80;34.45
79142;BME280;68550;-26.480;29.234;2023-05-27T09:58:45;84718.53;;;22.85;34.42
79142;BME280;68550;-26.480;29.234;2023-05-27T10:01:11;84714.99;;;22.79;34.50
79142;BME280;68550;-26.480;29.234;2023-05-27T10:03:37;84701.94;;;22.81;34.46
79142;BME280;68550;-26.480;29.234;2023-05-27T10:06:01;84695.82;;;22.75;34.51
79142;BME280;68550;-26.480;29.234;2023-05-27T10:08:26;84694.10;;;22.81;34.53
79142;BME280;68550;-26.480;29.234;2023-05-27T10:10:52;84695.61;;;23.07;34.49
79142;BME280;68550;-26.480;29.234;2023-05-27T10:13:20;84689.24;;;22.82;34.55
79142;BME280;68550;-26.480;29.234;2023-05-27T10:15:47;84683.26;;;22.83;34.52
79142;BME280;68550;-26.480;29.234;2023-05-27T10:18:08;84676.33;;;22.59;34.53
79142;BME280;68550;-26.480;29.234;2023-05-27T10:20:36;84679.63;;;22.88;34.48
79142;BME280;68550;-26.480;29.234;2023-05-27T10:23:11;84671.46;;;22.69;34.41
79142;BME280;68550;-26.480;29.234;2023-05-27T10:27:51;84667.27;;;23.02;34.33
79142;BME280;68550;-26.480;29.234;2023-05-27T10:30:16;84661.22;;;22.81;34.27
79142;BME280;68550;-26.480;29.234;2023-05-27T10:32:44;84658.06;;;22.78;34.30
79142;BME280;68550;-26.480;29.234;2023-05-27T10:35:06;84657.93;;;23.02;34.36
79142;BME280;68550;-26.480;29.234;2023-05-27T10:37:35;84659.84;;;22.78;34.33
79142;BME280;68550;-26.480;29.234;2023-05-27T10:39:56;84655.16;;;23.03;34.31
79142;BME280;68550;-26.480;29.234;2023-05-27T10:42:22;84652.68;;;22.98;34.39
79142;BME280;68550;-26.480;29.234;2023-05-27T10:44:49;84656.09;;;22.91;34.48
79142;BME280;68550;-26.480;29.234;2023-05-27T10:47:14;84653.82;;;22.97;34.38
79142;BME280;68550;-26.480;29.234;2023-05-27T10:49:40;84649.27;;;22.99;34.37
79142;BME280;68550;-26.480;29.234;2023-05-27T10:52:09;84646.52;;;23.05;34.26
79142;BME280;68550;-26.480;29.234;2023-05-27T10:54:30;84644.80;;;22.95;34.37
79142;BME280;68550;-26.480;29.234;2023-05-27T10:56:57;84639.55;;;22.96;34.36
79142;BME280;68550;-26.480;29.234;2023-05-27T10:59:22;84635.93;;;22.96;34.34
79142;BME280;68550;-26.480;29.234;2023-05-27T11:01:48;84630.91;;;22.73;34.35
79142;BME280;68550;-26.480;29.234;2023-05-27T11:04:12;84621.40;;;23.03;34.28
79142;BME280;68550;-26.480;29.234;2023-05-27T11:06:38;84622.21;;;23.05;34.27
79142;BME280;68550;-26.480;29.234;2023-05-27T11:09:03;84619.95;;;23.09;34.22
79142;BME280;68550;-26.480;29.234;2023-05-27T11:11:30;84612.31;;;23.01;34.31
79142;BME280;68550;-26.480;29.234;2023-05-27T11:13:59;84610.01;;;22.96;34.37
79142;BME280;68550;-26.480;29.234;2023-05-27T11:16:20;84609.85;;;22.99;34.35
79142;BME280;68550;-26.480;29.234;2023-05-27T11:18:47;84606.79;;;22.77;34.33
79142;BME280;68550;-26.480;29.234;2023-05-27T11:21:12;84601.65;;;23.03;34.28
79142;BME280;68550;-26.480;29.234;2023-05-27T11:23:39;84603.05;;;23.04;34.33
79142;BME280;68550;-26.480;29.234;2023-05-27T11:26:02;84602.18;;;22.80;34.31
79142;BME280;68550;-26.480;29.234;2023-05-27T11:28:33;84598.81;;;23.10;34.25
79142;BME280;68550;-26.480;29.234;2023-05-27T11:30:59;84602.51;;;23.15;34.16
79142;BME280;68550;-26.480;29.234;2023-05-27T11:33:21;84595.83;;;23.09;34.27
79142;BME280;68550;-26.480;29.234;2023-05-27T11:35:44;84589.12;;;22.87;34.26
79142;BME280;68550;-26.480;29.234;2023-05-27T11:38:18;84585.32;;;23.38;34.19
79142;BME280;68550;-26.480;29.234;2023-05-27T11:40:36;84586.06;;;22.90;34.22
79142;BME280;68550;-26.480;29.234;2023-05-27T11:43:01;84585.00;;;23.12;34.25
79142;BME280;68550;-26.480;29.234;2023-05-27T11:45:26;84582.50;;;23.12;34.30
79142;BME280;68550;-26.480;29.234;2023-05-27T11:47:52;84581.08;;;23.10;34.35
79142;BME280;68550;-26.480;29.234;2023-05-27T11:50:19;84578.42;;;23.16;34.31
79142;BME280;68550;-26.480;29.234;2023-05-27T11:52:52;84571.08;;;23.16;34.27
79142;BME280;68550;-26.480;29.234;2023-05-27T11:55:14;84577.95;;;22.93;34.28
79142;BME280;68550;-26.480;29.234;2023-05-27T11:57:34;84576.60;;;23.33;34.18
79142;BME280;68550;-26.480;29.234;2023-05-27T11:59:59;84575.42;;;23.34;34.14
79142;BME280;68550;-26.480;29.234;2023-05-27T12:02:24;84574.95;;;23.33;34.23
79142;BME280;68550;-26.480;29.234;2023-05-27T12:04:50;84573.77;;;23.39;34.12
79142;BME280;68550;-26.480;29.234;2023-05-27T12:07:15;84576.57;;;23.38;34.16
79142;BME280;68550;-26.480;29.234;2023-05-27T12:09:44;84576.22;;;23.19;34.11
79142;BME280;68550;-26.480;29.234;2023-05-27T12:12:06;84572.73;;;23.24;34.03
79142;BME280;68550;-26.480;29.234;2023-05-27T12:14:32;84570.14;;;23.47;34.14
79142;BME280;68550;-26.480;29.234;2023-05-27T12:16:57;84566.29;;;23.44;34.16
79142;BME280;68550;-26.480;29.234;2023-05-27T12:19:23;84562.37;;;23.07;34.02
79142;BME280;68550;-26.480;29.234;2023-05-27T12:21:49;84563.06;;;23.27;34.04
79142;BME280;68550;-26.480;29.234;2023-05-27T12:24:16;84565.84;;;23.04;34.08
79142;BME280;68550;-26.480;29.234;2023-05-27T12:26:40;84562.95;;;23.20;34.16
79142;BME280;68550;-26.480;29.234;2023-05-27T12:29:06;84561.13;;;23.19;34.24
79142;BME280;68550;-26.480;29.234;2023-05-27T12:31:32;84561.82;;;23.13;34.34
79142;BME280;68550;-26.480;29.234;2023-05-27T12:33:57;84556.88;;;23.30;34.09
79142;BME280;68550;-26.480;29.234;2023-05-27T12:36:25;84557.30;;;23.29;34.14
79142;BME280;68550;-26.480;29.234;2023-05-27T12:38:49;84560.50;;;23.30;34.19
79142;BME280;68550;-26.480;29.234;2023-05-27T12:41:14;84559.43;;;23.30;34.23
79142;BME280;68550;-26.480;29.234;2023-05-27T12:43:40;84563.00;;;23.58;34.14
79142;BME280;68550;-26.480;29.234;2023-05-27T12:46:05;84564.21;;;23.16;34.10
79142;BME280;68550;-26.480;29.234;2023-05-27T12:48:31;84565.72;;;23.38;34.15
79142;BME280;68550;-26.480;29.234;2023-05-27T12:50:59;84567.43;;;23.35;34.19
79142;BME280;68550;-26.480;29.234;2023-05-27T12:53:22;84565.09;;;23.29;34.18
79142;BME280;68550;-26.480;29.234;2023-05-27T12:55:47;84567.80;;;23.28;34.25
79142;BME280;68550;-26.480;29.234;2023-05-27T12:58:13;84571.68;;;23.44;34.29
79142;BME280;68550;-26.480;29.234;2023-05-27T13:00:38;84571.81;;;23.19;34.36
79142;BME280;68550;-26.480;29.234;2023-05-27T13:03:04;84571.07;;;23.47;34.27
79142;BME280;68550;-26.480;29.234;2023-05-27T13:05:28;84573.84;;;23.14;34.41
79142;BME280;68550;-26.480;29.234;2023-05-27T13:07:55;84572.57;;;23.40;34.37
79142;BME280;68550;-26.480;29.234;2023-05-27T13:10:19;84575.21;;;23.15;34.39
79142;BME280;68550;-26.480;29.234;2023-05-27T13:12:44;84574.70;;;23.39;34.40
79142;BME280;68550;-26.480;29.234;2023-05-27T13:15:11;84574.15;;;23.38;34.41
79142;BME280;68550;-26.480;29.234;2023-05-27T13:17:36;84575.41;;;23.39;34.38
79142;BME280;68550;-26.480;29.234;2023-05-27T13:20:02;84574.33;;;23.14;34.42
79142;BME280;68550;-26.480;29.234;2023-05-27T13:22:26;84578.12;;;23.63;34.33
79142;BME280;68550;-26.480;29.234;2023-05-27T13:24:52;84577.86;;;23.42;34.29
79142;BME280;68550;-26.480;29.234;2023-05-27T13:27:19;84582.89;;;23.16;34.32
79142;BME280;68550;-26.480;29.234;2023-05-27T13:29:44;84583.09;;;23.23;34.24
79142;BME280;68550;-26.480;29.234;2023-05-27T13:32:08;84581.91;;;23.21;34.32
79142;BME280;68550;-26.480;29.234;2023-05-27T13:34:33;84584.26;;;23.44;34.33
79142;BME280;68550;-26.480;29.234;2023-05-27T13:36:58;84584.11;;;23.24;34.28
79142;BME280;68550;-26.480;29.234;2023-05-27T13:39:27;84581.86;;;23.25;34.26
79142;BME280;68550;-26.480;29.234;2023-05-27T13:41:51;84582.03;;;23.42;34.38
79142;BME280;68550;-26.480;29.234;2023-05-27T13:44:15;84584.46;;;23.52;34.26
79142;BME280;68550;-26.480;29.234;2023-05-27T13:46:40;84581.40;;;23.05;34.26